createdAt,value
2022-09-30T00:01:41.830Z,118.72
2022-09-30T00:04:15.789Z,146.60
2022-09-30T00:06:42.947Z,184.38
2022-09-30T00:09:13.093Z,210.73
2022-09-30T00:11:41.077Z,123.40
2022-09-30T00:14:12.750Z,55.00
2022-09-30T00:16:39.753Z,22.27
2022-09-30T00:19:06.983Z,46.25
2022-09-30T00:21:34.121Z,16.05
2022-09-30T00:24:02.197Z,16.80
2022-09-30T00:26:29.455Z,15.45
2022-09-30T00:28:58.609Z,15.75
2022-09-30T00:31:28.703Z,19.02
2022-09-30T00:34:07.931Z,36.10
2022-09-30T00:36:44.144Z,18.42
2022-09-30T00:39:23.742Z,18.27
2022-09-30T00:45:03.579Z,16.13
2022-09-30T00:47:46.365Z,19.90
2022-09-30T00:50:19.527Z,20.58
2022-09-30T00:52:51.586Z,24.52
2022-09-30T00:55:31.137Z,25.40
2022-09-30T00:57:59.861Z,23.55
2022-09-30T01:00:26.939Z,26.80
2022-09-30T01:02:54.720Z,23.02
2022-09-30T01:05:23.097Z,21.90
2022-09-30T01:07:50.301Z,22.75
2022-09-30T01:10:17.436Z,37.63
2022-09-30T01:12:44.615Z,31.17
2022-09-30T01:15:12.575Z,22.35
2022-09-30T01:17:55.674Z,19.55
2022-09-30T01:20:44.217Z,76.28
2022-09-30T01:23:32.350Z,90.55
2022-09-30T01:26:13.753Z,63.33
2022-09-30T01:29:18.178Z,55.55
2022-09-30T01:32:13.611Z,69.07
2022-09-30T01:37:49.611Z,58.85
2022-09-30T01:40:39.693Z,77.75
2022-09-30T01:43:25.780Z,59.08
2022-09-30T01:46:13.538Z,40.17
2022-09-30T01:48:51.362Z,79.60
2022-09-30T01:51:30.357Z,34.92
2022-09-30T01:54:43.004Z,28.73
2022-09-30T01:57:41.086Z,14.40
2022-09-30T02:00:10.808Z,37.63
2022-09-30T02:05:37.926Z,29.90
2022-09-30T02:08:11.466Z,21.85
2022-09-30T02:10:57.365Z,16.90
2022-09-30T02:13:31.470Z,24.52
2022-09-30T02:16:12.986Z,27.58
2022-09-30T02:18:47.405Z,34.15
2022-09-30T02:21:23.386Z,59.58
2022-09-30T02:23:54.899Z,16.58
2022-09-30T02:26:29.257Z,42.45
2022-09-30T02:29:11.030Z,40.47
2022-09-30T02:31:41.920Z,87.07
2022-09-30T02:34:32.860Z,81.28
2022-09-30T02:37:20.926Z,26.02
2022-09-30T02:40:21.305Z,36.50
2022-09-30T02:42:49.282Z,39.40
2022-09-30T02:45:23.113Z,41.33
2022-09-30T02:47:57.492Z,32.90
2022-09-30T02:50:30.245Z,65.05
2022-09-30T02:53:03.079Z,55.92
2022-09-30T02:55:41.943Z,37.05
2022-09-30T02:58:19.823Z,34.85
2022-09-30T03:00:47.477Z,39.55
2022-09-30T03:03:22.860Z,22.85
2022-09-30T03:05:50.685Z,18.95
2022-09-30T03:08:18.114Z,14.45
2022-09-30T03:10:47.106Z,42.25
2022-09-30T03:13:39.801Z,36.58
2022-09-30T03:16:27.992Z,50.70
2022-09-30T03:19:37.137Z,70.78
2022-09-30T03:22:32.612Z,61.05
2022-09-30T03:25:11.452Z,38.70
2022-09-30T03:28:14.647Z,45.90
2022-09-30T03:31:01.364Z,21.35
2022-09-30T03:33:55.544Z,31.17
2022-09-30T03:36:34.933Z,51.97
2022-09-30T03:39:26.624Z,53.97
2022-09-30T03:42:02.459Z,52.45
2022-09-30T03:44:51.336Z,121.10
2022-09-30T03:47:21.116Z,152.05
2022-09-30T03:49:57.727Z,98.22
2022-09-30T03:59:13.537Z,60.30
2022-09-30T04:01:40.599Z,69.88
2022-09-30T04:04:07.731Z,61.55
2022-09-30T04:06:34.932Z,45.90
2022-09-30T04:09:02.055Z,41.00
2022-09-30T04:11:29.049Z,44.05
2022-09-30T04:13:56.131Z,33.92
2022-09-30T04:16:23.268Z,34.08
2022-09-30T04:18:51.179Z,30.23
2022-09-30T04:21:18.163Z,29.50
2022-09-30T04:23:45.524Z,14.50
2022-09-30T04:26:15.049Z,18.75
2022-09-30T04:28:42.398Z,68.35
2022-09-30T04:31:12.306Z,42.85
2022-09-30T04:33:39.850Z,49.63
2022-09-30T04:36:07.767Z,51.80
2022-09-30T04:38:34.723Z,23.58
2022-09-30T04:41:04.217Z,42.85
2022-09-30T04:43:31.663Z,33.78
2022-09-30T04:45:58.868Z,26.33
2022-09-30T04:48:28.080Z,32.90
2022-09-30T04:51:15.406Z,32.75
2022-09-30T04:53:43.231Z,33.92
2022-09-30T04:56:11.117Z,46.78
2022-09-30T04:58:38.502Z,25.83
2022-09-30T05:01:14.658Z,55.10
2022-09-30T05:03:43.491Z,38.25
2022-09-30T05:06:11.207Z,61.90
2022-09-30T05:08:41.738Z,52.47
2022-09-30T05:11:17.955Z,41.75
2022-09-30T05:13:45.423Z,29.45
2022-09-30T05:16:13.750Z,19.67
2022-09-30T05:18:42.905Z,16.05
2022-09-30T05:21:10.443Z,40.88
2022-09-30T05:23:38.285Z,60.80
2022-09-30T05:26:09.742Z,20.92
2022-09-30T05:28:38.809Z,25.80
2022-09-30T05:31:08.566Z,34.25
2022-09-30T05:33:36.108Z,15.35
2022-09-30T05:36:08.980Z,19.77
2022-09-30T05:38:36.315Z,19.55
2022-09-30T05:41:11.554Z,74.03
2022-09-30T05:43:40.538Z,137.40
2022-09-30T05:46:07.950Z,184.05
2022-09-30T05:48:35.244Z,139.13
2022-09-30T05:51:02.675Z,166.05
2022-09-30T05:53:32.222Z,200.13
2022-09-30T05:58:27.645Z,63.08
2022-09-30T06:00:55.012Z,25.52
2022-09-30T06:03:22.281Z,54.67
2022-09-30T06:05:55.632Z,26.95
2022-09-30T06:08:23.577Z,31.27
2022-09-30T06:10:50.741Z,39.58
2022-09-30T06:13:17.870Z,51.75
2022-09-30T06:15:45.001Z,43.60
2022-09-30T06:18:17.607Z,35.67
2022-09-30T06:20:44.769Z,29.42
2022-09-30T06:23:11.722Z,32.60
2022-09-30T06:25:38.823Z,37.10
2022-09-30T06:28:05.850Z,32.88
2022-09-30T06:30:35.226Z,50.85
2022-09-30T06:35:29.438Z,35.45
2022-09-30T06:37:56.377Z,48.83
2022-09-30T06:40:23.542Z,45.15
2022-09-30T06:42:50.625Z,39.03
2022-09-30T06:45:30.994Z,45.05
2022-09-30T06:48:01.308Z,28.08
2022-09-30T06:50:30.120Z,23.45
2022-09-30T06:53:02.088Z,35.40
2022-09-30T06:55:30.440Z,42.95
2022-09-30T06:57:57.800Z,54.50
2022-09-30T07:00:26.660Z,46.55
2022-09-30T07:02:59.343Z,32.23
2022-09-30T07:05:26.636Z,24.17
2022-09-30T07:07:54.365Z,27.90
2022-09-30T07:10:21.562Z,30.30
2022-09-30T07:12:52.760Z,28.38
2022-09-30T07:15:23.358Z,23.58
2022-09-30T07:17:56.704Z,24.90
2022-09-30T07:20:23.882Z,27.13
2022-09-30T07:22:51.065Z,25.70
2022-09-30T07:25:18.747Z,30.23
2022-09-30T07:27:46.921Z,35.85
2022-09-30T07:30:22.733Z,36.97
2022-09-30T07:32:51.693Z,34.08
2022-09-30T07:35:19.361Z,25.10
2022-09-30T07:37:46.334Z,23.48
2022-09-30T07:40:13.265Z,26.27
2022-09-30T07:42:45.984Z,25.25
2022-09-30T07:45:19.516Z,28.40
2022-09-30T07:47:51.004Z,25.35
2022-09-30T07:50:20.334Z,23.60
2022-09-30T07:57:12.857Z,24.27
2022-09-30T07:59:41.777Z,29.05
2022-09-30T08:02:14.108Z,27.70
2022-09-30T08:04:43.908Z,27.98
2022-09-30T08:07:12.040Z,31.10
2022-09-30T08:09:39.133Z,20.17
2022-09-30T08:12:06.490Z,17.55
2022-09-30T08:14:33.653Z,17.95
2022-09-30T08:17:00.951Z,22.08
2022-09-30T08:19:30.554Z,18.50
2022-09-30T08:21:58.262Z,22.75
2022-09-30T08:24:26.673Z,19.60
2022-09-30T08:26:54.699Z,19.95
2022-09-30T08:29:42.722Z,18.27
2022-09-30T08:32:08.950Z,21.77
2022-09-30T08:34:36.173Z,18.55
2022-09-30T08:37:08.839Z,18.70
2022-09-30T08:39:37.729Z,18.42
2022-09-30T08:42:36.593Z,19.38
2022-09-30T08:45:29.383Z,18.73
2022-09-30T08:48:05.465Z,18.70
2022-09-30T08:51:17.131Z,20.63
2022-09-30T08:53:47.631Z,16.45
2022-09-30T08:56:25.421Z,18.33
2022-09-30T08:58:57.133Z,16.95
2022-09-30T09:01:34.753Z,16.95
2022-09-30T09:04:04.583Z,19.92
2022-09-30T09:09:44.635Z,17.45
2022-09-30T09:12:38.952Z,18.75
2022-09-30T09:15:39.931Z,22.55
2022-09-30T09:18:34.846Z,18.48
2022-09-30T09:21:39.342Z,20.40
2022-09-30T09:24:16.376Z,19.52
2022-09-30T09:26:43.579Z,21.40
2022-09-30T09:29:43.574Z,18.45
2022-09-30T09:32:17.676Z,18.27
2022-09-30T09:34:50.677Z,18.27
2022-09-30T09:37:59.173Z,16.63
2022-09-30T09:40:40.801Z,16.45
2022-09-30T09:43:34.267Z,19.45
2022-09-30T09:46:23.217Z,19.65
2022-09-30T09:48:56.365Z,18.40
2022-09-30T09:51:31.482Z,19.00
2022-09-30T09:54:01.935Z,17.13
2022-09-30T09:56:32.491Z,17.65
2022-09-30T09:59:20.223Z,16.05
2022-09-30T10:01:53.826Z,17.45
2022-09-30T10:04:27.697Z,14.80
2022-09-30T10:07:00.346Z,15.82
2022-09-30T10:09:35.272Z,14.82
2022-09-30T10:12:08.244Z,13.90
2022-09-30T10:14:59.812Z,11.70
2022-09-30T10:17:34.282Z,11.55
2022-09-30T10:20:05.430Z,15.77
2022-09-30T10:22:33.088Z,12.57
2022-09-30T10:25:16.062Z,10.65
2022-09-30T10:27:59.548Z,9.93
2022-09-30T10:30:40.381Z,11.88
2022-09-30T10:33:28.395Z,8.23
2022-09-30T10:36:15.534Z,4.90
2022-09-30T10:39:11.633Z,4.93
2022-09-30T10:41:38.887Z,7.10
2022-09-30T10:44:13.046Z,6.35
2022-09-30T10:46:42.043Z,7.97
2022-09-30T10:49:18.983Z,10.63
2022-09-30T10:51:46.491Z,5.50
2022-09-30T10:54:33.367Z,6.35
2022-09-30T10:57:05.680Z,5.07
2022-09-30T10:59:38.641Z,4.78
2022-09-30T11:02:33.146Z,5.40
2022-09-30T11:05:15.315Z,5.28
2022-09-30T11:08:19.821Z,4.97
2022-09-30T11:11:17.033Z,4.53
2022-09-30T11:13:59.533Z,2.70
2022-09-30T11:16:36.744Z,2.85
2022-09-30T11:19:09.206Z,5.45
2022-09-30T11:21:43.764Z,4.38
2022-09-30T11:24:31.882Z,4.50
2022-09-30T11:27:10.945Z,2.83
2022-09-30T11:29:49.891Z,3.63
2022-09-30T11:32:38.935Z,3.43
2022-09-30T11:35:24.920Z,5.15
2022-09-30T11:38:57.102Z,1.67
2022-09-30T11:45:56.485Z,1.92
2022-09-30T11:49:06.097Z,2.97
2022-09-30T11:51:40.192Z,3.85
2022-09-30T11:54:37.586Z,3.20
2022-09-30T11:58:22.296Z,3.00
2022-09-30T12:01:14.193Z,4.20
2022-09-30T12:03:46.358Z,3.40
2022-09-30T12:06:58.141Z,2.50
2022-09-30T12:09:31.139Z,2.67
2022-09-30T12:13:11.039Z,3.30
2022-09-30T12:15:42.133Z,3.85
2022-09-30T12:18:22.976Z,2.75
2022-09-30T12:20:53.835Z,3.35
2022-09-30T12:23:31.931Z,3.17
2022-09-30T12:26:04.094Z,4.22
2022-09-30T12:28:57.871Z,3.22
2022-09-30T12:31:51.940Z,2.17
2022-09-30T12:34:40.576Z,1.90
2022-09-30T12:37:41.469Z,3.65
2022-09-30T12:40:51.580Z,2.40
2022-09-30T12:43:44.367Z,6.18
2022-09-30T12:46:29.903Z,2.95
2022-09-30T12:49:06.099Z,3.20
2022-09-30T12:51:43.153Z,4.00
2022-09-30T12:54:22.092Z,3.80
2022-09-30T12:56:55.534Z,2.23
2022-09-30T12:59:32.346Z,3.83
2022-09-30T13:02:29.437Z,3.60
2022-09-30T13:05:31.820Z,3.13
2022-09-30T13:08:04.940Z,2.55
2022-09-30T13:10:34.849Z,3.72
2022-09-30T13:15:41.063Z,3.10
2022-09-30T13:18:20.312Z,2.97
2022-09-30T13:20:50.344Z,4.68
2022-09-30T13:23:49.273Z,2.30
2022-09-30T13:26:39.249Z,2.77
2022-09-30T13:29:06.171Z,6.78
2022-09-30T13:31:53.175Z,3.08
2022-09-30T13:34:25.630Z,3.72
2022-09-30T13:37:05.479Z,3.00
2022-09-30T13:43:06.541Z,1.98
2022-09-30T13:45:36.946Z,3.35
2022-09-30T13:48:08.160Z,2.03
2022-09-30T13:50:46.750Z,2.00
2022-09-30T13:53:21.514Z,1.95
2022-09-30T13:56:20.013Z,2.70
2022-09-30T13:59:17.304Z,3.17
2022-09-30T14:02:03.121Z,3.03
2022-09-30T14:05:01.014Z,2.42
2022-09-30T14:08:38.138Z,2.60
2022-09-30T14:15:40.212Z,3.00
2022-09-30T14:22:30.432Z,2.70
2022-09-30T14:29:26.055Z,3.35
2022-09-30T14:31:53.225Z,2.10
2022-09-30T14:34:23.104Z,4.57
2022-09-30T14:36:53.559Z,5.13
2022-09-30T14:39:28.913Z,3.38
2022-09-30T14:42:02.158Z,1.55
2022-09-30T14:44:33.987Z,1.60
2022-09-30T14:47:03.404Z,3.22
2022-09-30T14:49:34.789Z,2.10
2022-09-30T14:52:06.731Z,1.67
2022-09-30T14:54:34.263Z,1.67
2022-09-30T14:57:04.215Z,4.82
2022-09-30T14:59:34.657Z,1.85
2022-09-30T15:02:20.656Z,2.05
2022-09-30T15:05:00.449Z,2.15
2022-09-30T15:07:28.378Z,2.65
2022-09-30T15:10:01.749Z,3.78
2022-09-30T15:12:29.018Z,6.03
2022-09-30T15:14:58.843Z,2.67
2022-09-30T15:20:36.813Z,4.65
2022-09-30T15:23:15.280Z,3.72
2022-09-30T15:25:42.734Z,7.68
2022-09-30T15:28:11.243Z,4.80
2022-09-30T15:30:38.495Z,3.17
2022-09-30T15:33:06.429Z,1.80
2022-09-30T15:35:33.540Z,3.22
2022-09-30T15:38:27.772Z,1.95
2022-09-30T15:41:11.701Z,1.73
2022-09-30T15:43:40.990Z,7.13
2022-09-30T15:46:38.055Z,2.97
2022-09-30T15:49:29.079Z,4.15
2022-09-30T15:52:16.134Z,2.05
2022-09-30T15:54:43.217Z,2.95
2022-09-30T15:57:49.943Z,1.50
2022-09-30T16:00:40.200Z,2.15
2022-09-30T16:03:18.846Z,3.15
2022-09-30T16:05:50.656Z,3.20
2022-09-30T16:08:29.141Z,7.43
2022-09-30T16:10:58.091Z,3.67
2022-09-30T16:13:30.582Z,4.40
2022-09-30T16:15:58.673Z,4.45
2022-09-30T16:18:33.995Z,4.05
2022-09-30T16:21:06.009Z,4.05
2022-09-30T16:23:38.081Z,3.10
2022-09-30T16:26:28.652Z,3.33
2022-09-30T16:28:56.578Z,3.30
2022-09-30T16:31:24.642Z,4.43
2022-09-30T16:33:51.717Z,5.93
2022-09-30T16:36:18.788Z,10.88
2022-09-30T16:38:45.777Z,11.13
2022-09-30T16:41:13.783Z,17.90
2022-09-30T16:43:41.150Z,21.70
2022-09-30T16:46:09.755Z,15.50
2022-09-30T16:48:36.925Z,11.45
2022-09-30T16:51:15.768Z,15.40
2022-09-30T16:53:43.388Z,13.98
2022-09-30T16:56:16.172Z,6.60
2022-09-30T16:58:44.336Z,5.18
2022-09-30T17:01:22.551Z,4.22
2022-09-30T17:03:50.205Z,3.15
2022-09-30T17:06:19.415Z,6.97
2022-09-30T17:08:49.411Z,7.35
2022-09-30T17:11:17.049Z,12.75
2022-09-30T17:13:44.037Z,10.70
2022-09-30T17:16:11.214Z,7.13
2022-09-30T17:18:38.305Z,22.98
2022-09-30T17:21:05.440Z,8.38
2022-09-30T17:23:32.443Z,5.32
2022-09-30T17:25:59.529Z,5.95
2022-09-30T17:28:26.520Z,5.15
2022-09-30T17:30:54.073Z,5.40
2022-09-30T17:33:21.044Z,6.40
2022-09-30T17:35:59.490Z,4.72
2022-09-30T17:38:39.382Z,13.82
2022-09-30T17:43:52.295Z,15.25
2022-09-30T17:46:23.290Z,10.00
2022-09-30T17:48:54.635Z,9.50
2022-09-30T17:51:21.613Z,11.57
2022-09-30T17:53:49.342Z,11.48
2022-09-30T17:56:20.135Z,9.88
2022-09-30T17:58:49.213Z,6.85
2022-09-30T18:01:18.197Z,8.95
2022-09-30T18:03:45.966Z,8.82
2022-09-30T18:06:16.874Z,6.53
2022-09-30T18:08:47.707Z,9.52
2022-09-30T18:11:23.831Z,6.93
2022-09-30T18:13:59.556Z,6.15
2022-09-30T18:16:30.844Z,11.45
2022-09-30T18:19:03.395Z,8.32
2022-09-30T18:21:31.256Z,9.35
2022-09-30T18:23:58.899Z,9.32
2022-09-30T18:26:33.070Z,9.15
2022-09-30T18:29:02.646Z,11.55
2022-09-30T18:31:34.636Z,10.85
2022-09-30T18:34:03.142Z,15.25
2022-09-30T18:36:32.520Z,14.13
2022-09-30T18:39:02.111Z,11.45
2022-09-30T18:41:31.917Z,12.57
2022-09-30T18:44:02.703Z,12.77
2022-09-30T18:46:31.001Z,11.25
2022-09-30T18:49:01.693Z,11.48
2022-09-30T18:51:29.300Z,10.13
2022-09-30T18:53:59.306Z,9.52
2022-09-30T18:59:21.938Z,9.85
2022-09-30T19:02:18.190Z,12.35
2022-09-30T19:05:19.343Z,9.65
2022-09-30T19:07:53.596Z,11.20
2022-09-30T19:10:20.938Z,13.35
2022-09-30T19:12:48.167Z,11.25
2022-09-30T19:15:18.241Z,12.00
2022-09-30T19:17:45.604Z,14.35
2022-09-30T19:20:15.403Z,11.13
2022-09-30T19:22:42.669Z,12.90
2022-09-30T19:25:11.767Z,12.43
2022-09-30T19:27:40.966Z,19.27
2022-09-30T19:30:10.740Z,10.63
2022-09-30T19:33:55.851Z,12.50
2022-09-30T19:36:24.921Z,8.38
2022-09-30T19:38:59.904Z,14.38
2022-09-30T19:41:32.944Z,13.05
2022-09-30T19:44:02.047Z,13.50
2022-09-30T19:46:29.245Z,14.88
2022-09-30T19:48:56.585Z,15.65
2022-09-30T19:51:23.869Z,15.68
2022-09-30T19:54:03.809Z,16.05
2022-09-30T19:56:33.170Z,19.35
2022-09-30T19:59:00.735Z,15.95
2022-09-30T20:01:29.346Z,17.90
2022-09-30T20:04:08.334Z,17.45
2022-09-30T20:06:36.387Z,17.27
2022-09-30T20:09:06.262Z,19.58
2022-09-30T20:11:36.766Z,15.18
2022-09-30T20:14:25.096Z,16.77
2022-09-30T20:21:17.864Z,16.92
2022-09-30T20:28:19.602Z,18.40
2022-09-30T20:30:47.002Z,15.02
2022-09-30T20:33:19.888Z,16.33
2022-09-30T20:35:48.135Z,19.23
2022-09-30T20:38:20.088Z,25.73
2022-09-30T20:40:47.039Z,24.63
2022-09-30T20:43:13.990Z,37.97
2022-09-30T20:45:41.183Z,32.20
2022-09-30T20:48:08.693Z,30.98
2022-09-30T20:50:35.718Z,19.17
2022-09-30T20:53:05.048Z,18.05
2022-09-30T20:55:35.445Z,17.52
2022-09-30T20:58:02.511Z,16.13
2022-09-30T21:00:30.836Z,16.40
2022-09-30T21:02:57.914Z,15.68
2022-09-30T21:05:34.897Z,13.82
2022-09-30T21:08:02.183Z,16.98
2022-09-30T21:10:30.334Z,15.65
2022-09-30T21:12:58.805Z,17.80
2022-09-30T21:15:26.189Z,19.52
2022-09-30T21:17:54.917Z,19.10
2022-09-30T21:20:22.610Z,24.75
2022-09-30T21:22:49.932Z,20.38
2022-09-30T21:25:17.018Z,21.45
2022-09-30T21:27:48.953Z,23.65
2022-09-30T21:30:17.260Z,21.35
2022-09-30T21:32:45.267Z,21.33
2022-09-30T21:35:13.838Z,19.38
2022-09-30T21:37:41.923Z,18.52
2022-09-30T21:44:10.288Z,18.33
2022-09-30T21:46:37.592Z,16.85
2022-09-30T21:49:06.982Z,20.88
2022-09-30T21:51:35.366Z,16.65
2022-09-30T21:54:03.030Z,17.67
2022-09-30T21:56:30.307Z,14.85
2022-09-30T21:58:57.743Z,16.88
2022-09-30T22:01:25.791Z,16.35
2022-09-30T22:03:52.863Z,15.40
2022-09-30T22:06:20.018Z,13.80
2022-09-30T22:08:47.067Z,17.58
2022-09-30T22:11:24.643Z,18.15
2022-09-30T22:13:55.697Z,16.25
2022-09-30T22:16:27.056Z,18.25
2022-09-30T22:18:55.932Z,20.85
2022-09-30T22:21:22.986Z,21.65
2022-09-30T22:23:50.104Z,22.50
2022-09-30T22:26:19.100Z,21.02
2022-09-30T22:28:47.284Z,21.88
2022-09-30T22:31:19.942Z,23.02
2022-09-30T22:34:06.967Z,18.75
2022-09-30T22:36:53.441Z,18.08
2022-09-30T22:39:21.286Z,16.48
2022-09-30T22:41:49.164Z,18.02
2022-09-30T22:44:18.835Z,17.00
2022-09-30T22:46:45.873Z,19.55
2022-09-30T22:49:12.872Z,21.33
2022-09-30T22:52:03.911Z,16.02
2022-09-30T22:54:31.066Z,15.32
2022-09-30T22:56:59.502Z,18.10
2022-09-30T22:59:27.786Z,16.38
2022-09-30T23:01:56.096Z,19.35
2022-09-30T23:04:24.971Z,16.45
2022-09-30T23:06:53.835Z,15.70
2022-09-30T23:09:21.467Z,16.00
2022-09-30T23:11:51.671Z,15.50
2022-09-30T23:14:18.889Z,14.02
2022-09-30T23:16:46.008Z,14.43
2022-09-30T23:19:13.176Z,21.08
2022-09-30T23:21:40.874Z,19.58
2022-09-30T23:24:07.922Z,17.08
2022-09-30T23:26:35.423Z,19.15
2022-09-30T23:29:05.562Z,19.88
2022-09-30T23:31:33.599Z,20.92
2022-09-30T23:34:02.687Z,17.55
2022-09-30T23:36:31.918Z,21.25
2022-09-30T23:39:18.472Z,21.30
2022-09-30T23:41:49.868Z,17.00
2022-09-30T23:44:20.646Z,14.73
2022-09-30T23:47:23.764Z,19.02
2022-09-30T23:49:50.970Z,16.27
2022-09-30T23:52:17.984Z,18.85
2022-09-30T23:54:44.992Z,15.13
2022-09-30T23:57:11.940Z,16.52
2022-09-30T23:59:39.453Z,15.57
